地図

経路データ

SID SEASON NUMBER BASIN SUBBASIN NAME ISO_TIME NATURE LAT LON WMO_WIND WMO_PRES WMO_AGENCY TRACK_TYPE DIST2LAND LANDFALL IFLAG USA_AGENCY USA_ATCF_ID USA_LAT USA_LON USA_RECORD USA_STATUS USA_WIND USA_PRES USA_SSHS USA_R34_NE USA_R34_SE USA_R34_SW USA_R34_NW USA_R50_NE USA_R50_SE USA_R50_SW USA_R50_NW USA_R64_NE USA_R64_SE USA_R64_SW USA_R64_NW USA_POCI USA_ROCI USA_RMW USA_EYE TOKYO_LAT TOKYO_LON TOKYO_GRADE TOKYO_WIND TOKYO_PRES TOKYO_R50_DIR TOKYO_R50_LONG TOKYO_R50_SHORT TOKYO_R30_DIR TOKYO_R30_LONG TOKYO_R30_SHORT TOKYO_LAND CMA_LAT CMA_LON CMA_CAT CMA_WIND CMA_PRES HKO_LAT HKO_LON HKO_CAT HKO_WIND HKO_PRES NEWDELHI_LAT NEWDELHI_LON NEWDELHI_GRADE NEWDELHI_WIND NEWDELHI_PRES NEWDELHI_CI NEWDELHI_DP NEWDELHI_POCI REUNION_LAT REUNION_LON REUNION_TYPE REUNION_WIND REUNION_PRES REUNION_TNUM REUNION_CI REUNION_RMW REUNION_R34_NE REUNION_R34_SE REUNION_R34_SW REUNION_R34_NW REUNION_R50_NE REUNION_R50_SE REUNION_R50_SW REUNION_R50_NW REUNION_R64_NE REUNION_R64_SE REUNION_R64_SW REUNION_R64_NW BOM_LAT BOM_LON BOM_TYPE BOM_WIND BOM_PRES BOM_TNUM BOM_CI BOM_RMW BOM_R34_NE BOM_R34_SE BOM_R34_SW BOM_R34_NW BOM_R50_NE BOM_R50_SE BOM_R50_SW BOM_R50_NW BOM_R64_NE BOM_R64_SE BOM_R64_SW BOM_R64_NW BOM_ROCI BOM_POCI BOM_EYE BOM_POS_METHOD BOM_PRES_METHOD NADI_LAT NADI_LON NADI_CAT NADI_WIND NADI_PRES WELLINGTON_LAT WELLINGTON_LON WELLINGTON_WIND WELLINGTON_PRES DS824_LAT DS824_LON DS824_STAGE DS824_WIND DS824_PRES TD9636_LAT TD9636_LON TD9636_STAGE TD9636_WIND TD9636_PRES TD9635_LAT TD9635_LON TD9635_WIND TD9635_PRES TD9635_ROCI NEUMANN_LAT NEUMANN_LON NEUMANN_CLASS NEUMANN_WIND NEUMANN_PRES MLC_LAT MLC_LON MLC_CLASS MLC_WIND MLC_PRES USA_GUST BOM_GUST BOM_GUST_PER REUNION_GUST REUNION_GUST_PER USA_SEAHGT USA_SEARAD_NE USA_SEARAD_SE USA_SEARAD_SW USA_SEARAD_NW STORM_SPEED STORM_DIR
1945253N16302 1945 59 NA NA NOT_NAMED 1945-09-09 12:00:00 TS 16.4000 -58.3000 45 hurdat_atl main 701 701 O_____________ hurdat_atl AL081945 16.4000 -58.3000 TS 45 0 14 319
1945253N16302 1945 59 NA NA NOT_NAMED 1945-09-09 15:00:00 TS 16.9077 -58.7595 main 733 683 P_____________ AL081945 16.9077 -58.7595 TS 45 0 13 319
1945253N16302 1945 59 NA NA NOT_NAMED 1945-09-09 18:00:00 TS 17.4000 -59.2000 45 1009 hurdat_atl main 683 636 O_____________ hurdat_atl AL081945 17.4000 -59.2000 TS 45 1009 0 13 320
1945253N16302 1945 59 NA NA NOT_NAMED 1945-09-09 21:00:00 TS 17.8649 -59.6077 main 635 591 P_____________ AL081945 17.8649 -59.6077 TS 45 0 12 320
1945253N16302 1945 59 NA NA NOT_NAMED 1945-09-10 00:00:00 TS 18.3000 -60.0000 45 hurdat_atl main 591 549 O_____________ hurdat_atl AL081945 18.3000 -60.0000 TS 45 0 11 318
1945253N16302 1945 59 NA NA NOT_NAMED 1945-09-10 03:00:00 TS 18.6923 -60.3855 main 549 511 P_____________ AL081945 18.6923 -60.3855 TS 45 0 11 317
1945253N16302 1945 59 NA NA NOT_NAMED 1945-09-10 06:00:00 TS 19.1000 -60.8000 45 hurdat_atl main 511 478 O_____________ hurdat_atl AL081945 19.1000 -60.8000 TS 45 0 12 317
1945253N16302 1945 59 NA NA NOT_NAMED 1945-09-10 09:00:00 TS 19.5697 -61.2556 main 471 441 P_____________ AL081945 19.5697 -61.2556 TS 47 0 14 317
1945253N16302 1945 59 NA NA NOT_NAMED 1945-09-10 12:00:00 TS 20.1000 -61.8000 50 hurdat_atl main 441 415 O_____________ hurdat_atl AL081945 20.1000 -61.8000 TS 50 0 16 315
1945253N16302 1945 59 NA NA NOT_NAMED 1945-09-10 15:00:00 TS 20.6773 -62.4480 main 422 405 P_____________ AL081945 20.6773 -62.4480 TS 50 0 18 312
1945253N16302 1945 59 NA NA NOT_NAMED 1945-09-10 18:00:00 TS 21.3000 -63.2000 50 hurdat_atl main 410 406 O_____________ hurdat_atl AL081945 21.3000 -63.2000 TS 50 0 20 310
1945253N16302 1945 59 NA NA NOT_NAMED 1945-09-10 21:00:00 TS 21.9354 -64.0649 main 421 421 P_____________ AL081945 21.9354 -64.0649 TS 50 0 20 309
1945253N16302 1945 59 NA NA NOT_NAMED 1945-09-11 00:00:00 TS 22.6000 -64.9000 50 hurdat_atl main 475 475 O_____________ hurdat_atl AL081945 22.6000 -64.9000 TS 50 0 19 314
1945253N16302 1945 59 NA NA NOT_NAMED 1945-09-11 03:00:00 TS 23.2845 -65.5608 main 547 547 P_____________ AL081945 23.2845 -65.5608 TS 50 0 18 322
1945253N16302 1945 59 NA NA NOT_NAMED 1945-09-11 06:00:00 TS 24.0000 -66.1000 50 hurdat_atl main 620 620 O_____________ hurdat_atl AL081945 24.0000 -66.1000 TS 50 0 18 326
1945253N16302 1945 59 NA NA NOT_NAMED 1945-09-11 09:00:00 TS 24.7424 -66.6175 main 664 664 P_____________ AL081945 24.7424 -66.6175 TS 47 0 17 331
1945253N16302 1945 59 NA NA NOT_NAMED 1945-09-11 12:00:00 TS 25.5000 -67.0000 45 hurdat_atl main 727 727 O_____________ hurdat_atl AL081945 25.5000 -67.0000 TS 45 0 16 340
1945253N16302 1945 59 NA NA NOT_NAMED 1945-09-11 15:00:00 TS 26.2423 -67.2107 main 791 791 P_____________ AL081945 26.2423 -67.2107 TS 45 0 15 350
1945253N16302 1945 59 NA NA NOT_NAMED 1945-09-11 18:00:00 TS 27.0000 -67.3000 45 hurdat_atl main 868 868 O_____________ hurdat_atl AL081945 27.0000 -67.3000 TS 45 0 16 354
1945253N16302 1945 59 NA NA NOT_NAMED 1945-09-11 21:00:00 TS 27.7850 -67.3800 main 929 929 P_____________ AL081945 27.7850 -67.3800 TS 42 0 16 357
1945253N16302 1945 59 NA NA NOT_NAMED 1945-09-12 00:00:00 TS 28.6000 -67.4000 40 hurdat_atl main 1000 1000 O_____________ hurdat_atl AL081945 28.6000 -67.4000 TS 40 0 17 0
1945253N16302 1945 59 NA NA NOT_NAMED 1945-09-12 03:00:00 TS 29.4275 -67.3725 main 1036 978 P_____________ AL081945 29.4275 -67.3725 TS 40 0 17 3
1945253N16302 1945 59 NA NA NOT_NAMED 1945-09-12 06:00:00 TS 30.3000 -67.3000 40 hurdat_atl main 978 923 O_____________ hurdat_atl AL081945 30.3000 -67.3000 TS 40 0 18 4
1945253N16302 1945 59 NA NA NOT_NAMED 1945-09-12 09:00:00 TS 31.2050 -67.2219 main 923 875 P_____________ AL081945 31.2050 -67.2219 TS 37 0 19 5
1945253N16302 1945 59 NA NA NOT_NAMED 1945-09-12 12:00:00 TS 32.2000 -67.1000 35 hurdat_atl main 870 833 O_____________ hurdat_atl AL081945 32.2000 -67.1000 TS 35 0 21 7
1945253N16302 1945 59 NA NA NOT_NAMED 1945-09-12 15:00:00 TS 33.3151 -66.9191 main 833 810 P_____________ AL081945 33.3151 -66.9191 TS 32 -1 23 8
1945253N16302 1945 59 NA NA NOT_NAMED 1945-09-12 18:00:00 TS 34.5000 -66.7000 30 hurdat_atl main 811 O_____________ hurdat_atl AL081945 34.5000 -66.7000 TD 30 -1 24 9

IBTrACS Databaseについて

本データベースは、米国NOAAが公開する1842年以降の世界の熱帯低気圧のベストトラックデータアーカイブInternational Best Track Archive for Climate Stewardship (IBTrACS)を、ウェブで閲覧しやすい形式に変換したものです。

最終更新日:2021-10-19